createdAt,value
2017-10-28T08:40:57.317Z,8.07
2017-10-28T08:43:24.893Z,6.60
2017-10-28T08:45:52.432Z,8.50
2017-10-28T08:48:20.419Z,8.30
2017-10-28T08:50:48.678Z,9.00
2017-10-28T08:53:16.668Z,10.10
2017-10-28T08:55:44.552Z,8.17
2017-10-28T08:58:13.024Z,9.60
2017-10-28T09:00:40.612Z,9.10
2017-10-28T09:03:08.717Z,10.00
2017-10-28T09:05:36.181Z,8.97
2017-10-28T09:08:03.682Z,9.13
2017-10-28T09:10:31.198Z,10.27
2017-10-28T09:12:58.673Z,8.00
2017-10-28T09:15:26.326Z,8.90
2017-10-28T09:17:53.800Z,10.27
2017-10-28T09:20:21.312Z,8.57
2017-10-28T09:22:48.774Z,8.63
2017-10-28T09:25:16.270Z,9.73
2017-10-28T09:27:43.762Z,9.83
2017-10-28T09:30:11.264Z,7.80
2017-10-28T09:32:38.771Z,9.30
2017-10-28T09:35:06.836Z,8.43
2017-10-28T09:37:34.477Z,8.80
2017-10-28T09:40:02.077Z,9.63
2017-10-28T09:42:29.648Z,10.43
2017-10-28T09:44:57.577Z,9.10
2017-10-28T09:47:25.072Z,8.57
2017-10-28T09:49:52.658Z,9.50
2017-10-28T09:52:20.132Z,10.60
2017-10-28T09:54:47.718Z,10.20
2017-10-28T09:57:15.299Z,8.40
2017-10-28T09:59:42.764Z,8.93
2017-10-28T10:02:11.383Z,8.33
2017-10-28T10:04:39.333Z,7.80
2017-10-28T10:07:06.811Z,9.47
2017-10-28T10:09:35.150Z,9.30
2017-10-28T10:12:03.670Z,9.47
2017-10-28T10:14:31.202Z,8.40
2017-10-28T10:17:01.542Z,9.60
2017-10-28T10:19:32.225Z,8.13
2017-10-28T10:21:59.684Z,8.60
2017-10-28T10:24:27.168Z,9.80
2017-10-28T10:26:54.856Z,9.80
2017-10-28T10:29:22.340Z,9.13
2017-10-28T10:31:49.817Z,8.13
2017-10-28T10:34:17.437Z,8.53
2017-10-28T10:36:45.572Z,6.80
2017-10-28T10:39:13.269Z,7.27
2017-10-28T10:41:40.771Z,7.40
2017-10-28T10:44:08.423Z,5.73
2017-10-28T10:46:35.881Z,3.67
2017-10-28T10:49:03.414Z,3.20
2017-10-28T10:51:31.058Z,2.93
2017-10-28T10:53:58.815Z,2.30
2017-10-28T10:56:26.274Z,2.93
2017-10-28T10:58:53.793Z,3.63
2017-10-28T11:01:21.490Z,2.60
2017-10-28T11:03:48.989Z,2.20
2017-10-28T11:06:16.616Z,1.87
2017-10-28T11:08:44.688Z,2.43
2017-10-28T11:11:12.185Z,1.90
2017-10-28T11:13:39.730Z,3.20
2017-10-28T11:16:07.216Z,1.97
2017-10-28T11:18:34.725Z,1.53
2017-10-28T11:21:02.203Z,1.60
2017-10-28T11:23:29.680Z,1.70
2017-10-28T11:25:58.212Z,1.70
2017-10-28T11:28:27.174Z,1.77
2017-10-28T11:30:54.738Z,1.97
2017-10-28T11:33:22.265Z,2.20
2017-10-28T11:35:49.756Z,1.60
2017-10-28T11:38:18.166Z,1.80
2017-10-28T11:40:45.720Z,1.70
2017-10-28T11:43:13.594Z,1.90
2017-10-28T11:45:41.110Z,1.83
2017-10-28T11:48:08.637Z,1.77
2017-10-28T11:50:36.388Z,1.73
2017-10-28T11:53:03.894Z,2.03
2017-10-28T11:55:31.441Z,1.80
2017-10-28T11:57:58.982Z,2.20
2017-10-28T12:00:26.512Z,2.20
2017-10-28T12:02:54.041Z,2.33
2017-10-28T12:05:21.635Z,1.80
2017-10-28T12:07:49.121Z,1.70
2017-10-28T12:10:16.847Z,2.27
2017-10-28T12:12:44.447Z,2.43
2017-10-28T12:15:12.060Z,2.47
2017-10-28T12:17:39.692Z,2.77
2017-10-28T12:20:07.460Z,2.37
2017-10-28T12:22:35.095Z,2.23
2017-10-28T12:25:04.119Z,1.90
2017-10-28T12:27:32.442Z,1.90
2017-10-28T12:30:10.961Z,2.00
2017-10-28T12:32:38.704Z,2.40
2017-10-28T12:35:06.284Z,2.37
2017-10-28T12:37:35.299Z,2.27
2017-10-28T12:40:02.929Z,2.30
2017-10-28T12:42:32.381Z,2.20
2017-10-28T12:45:01.704Z,2.50
2017-10-28T12:47:33.239Z,2.60
2017-10-28T12:50:01.924Z,2.13
2017-10-28T12:52:34.360Z,2.20
2017-10-28T12:55:02.010Z,2.67
2017-10-28T12:57:31.646Z,2.23
2017-10-28T12:59:59.204Z,2.60
2017-10-28T13:02:26.868Z,2.57
2017-10-28T13:05:01.649Z,2.73
2017-10-28T13:07:29.239Z,2.33
2017-10-28T13:09:58.022Z,3.27
2017-10-28T13:12:25.550Z,2.37
2017-10-28T13:14:53.186Z,1.70
2017-10-28T13:17:20.810Z,3.07
2017-10-28T13:19:48.400Z,2.87
2017-10-28T13:22:16.342Z,2.80
2017-10-28T13:24:46.188Z,3.07
2017-10-28T13:27:13.810Z,3.60
2017-10-28T13:29:41.850Z,2.70
2017-10-28T13:32:09.569Z,3.03
2017-10-28T13:34:38.024Z,3.10
2017-10-28T13:37:14.540Z,3.33
2017-10-28T13:39:44.333Z,2.73
2017-10-28T13:42:19.396Z,3.03
2017-10-28T13:47:25.708Z,3.00
